sensor_id;sensor_type;location;lat;lon;timestamp;P1;durP1;ratioP1;P2;durP2;ratioP2
21034;SDS011;10676;50.848;3.272;2024-02-04T00:00:27;29.55;;;26.67;;
21034;SDS011;10676;50.848;3.272;2024-02-04T00:02:52;29.55;;;26.50;;
21034;SDS011;10676;50.848;3.272;2024-02-04T00:05:18;30.67;;;27.50;;
21034;SDS011;10676;50.848;3.272;2024-02-04T00:07:44;29.55;;;26.80;;
21034;SDS011;10676;50.848;3.272;2024-02-04T00:10:10;29.70;;;26.80;;
21034;SDS011;10676;50.848;3.272;2024-02-04T00:12:36;30.48;;;27.20;;
21034;SDS011;10676;50.848;3.272;2024-02-04T00:15:02;29.13;;;26.20;;
21034;SDS011;10676;50.848;3.272;2024-02-04T00:17:29;29.05;;;26.27;;
21034;SDS011;10676;50.848;3.272;2024-02-04T00:19:58;30.95;;;27.50;;
21034;SDS011;10676;50.848;3.272;2024-02-04T00:22:28;30.23;;;26.90;;
21034;SDS011;10676;50.848;3.272;2024-02-04T00:24:54;29.40;;;26.20;;
21034;SDS011;10676;50.848;3.272;2024-02-04T00:27:19;28.65;;;25.85;;
21034;SDS011;10676;50.848;3.272;2024-02-04T00:29:45;30.42;;;27.10;;
21034;SDS011;10676;50.848;3.272;2024-02-04T00:32:11;30.83;;;27.60;;
21034;SDS011;10676;50.848;3.272;2024-02-04T00:34:36;32.58;;;27.92;;
21034;SDS011;10676;50.848;3.272;2024-02-04T00:37:02;33.45;;;27.77;;
21034;SDS011;10676;50.848;3.272;2024-02-04T00:39:28;32.92;;;29.45;;
21034;SDS011;10676;50.848;3.272;2024-02-04T00:41:53;40.88;;;34.38;;
21034;SDS011;10676;50.848;3.272;2024-02-04T00:44:19;42.92;;;38.33;;
21034;SDS011;10676;50.848;3.272;2024-02-04T00:46:45;42.67;;;38.15;;
21034;SDS011;10676;50.848;3.272;2024-02-04T00:49:10;44.75;;;39.80;;
21034;SDS011;10676;50.848;3.272;2024-02-04T00:51:36;49.95;;;41.03;;
21034;SDS011;10676;50.848;3.272;2024-02-04T00:54:02;52.13;;;43.55;;
21034;SDS011;10676;50.848;3.272;2024-02-04T00:56:27;54.30;;;44.28;;
21034;SDS011;10676;50.848;3.272;2024-02-04T00:58:53;54.17;;;44.55;;
21034;SDS011;10676;50.848;3.272;2024-02-04T01:01:20;52.10;;;44.03;;
21034;SDS011;10676;50.848;3.272;2024-02-04T01:03:46;49.80;;;44.10;;
21034;SDS011;10676;50.848;3.272;2024-02-04T01:06:12;54.58;;;42.58;;
21034;SDS011;10676;50.848;3.272;2024-02-04T01:08:37;54.95;;;45.97;;
21034;SDS011;10676;50.848;3.272;2024-02-04T01:11:04;55.97;;;45.05;;
21034;SDS011;10676;50.848;3.272;2024-02-04T01:13:30;54.45;;;43.97;;
21034;SDS011;10676;50.848;3.272;2024-02-04T01:15:56;51.00;;;43.20;;
21034;SDS011;10676;50.848;3.272;2024-02-04T01:18:22;59.17;;;44.95;;
21034;SDS011;10676;50.848;3.272;2024-02-04T01:20:48;61.20;;;44.28;;
21034;SDS011;10676;50.848;3.272;2024-02-04T01:23:14;56.50;;;44.05;;
21034;SDS011;10676;50.848;3.272;2024-02-04T01:25:42;54.90;;;45.20;;
21034;SDS011;10676;50.848;3.272;2024-02-04T01:28:08;52.55;;;43.20;;
21034;SDS011;10676;50.848;3.272;2024-02-04T01:30:34;55.72;;;43.08;;
21034;SDS011;10676;50.848;3.272;2024-02-04T01:33:00;57.13;;;44.30;;
21034;SDS011;10676;50.848;3.272;2024-02-04T01:35:26;52.05;;;42.63;;
21034;SDS011;10676;50.848;3.272;2024-02-04T01:37:51;56.35;;;42.05;;
21034;SDS011;10676;50.848;3.272;2024-02-04T01:40:17;48.53;;;39.92;;
21034;SDS011;10676;50.848;3.272;2024-02-04T01:42:43;50.42;;;40.58;;
21034;SDS011;10676;50.848;3.272;2024-02-04T01:45:08;52.75;;;42.80;;
21034;SDS011;10676;50.848;3.272;2024-02-04T01:47:34;49.70;;;42.30;;
21034;SDS011;10676;50.848;3.272;2024-02-04T01:50:00;57.30;;;44.75;;
21034;SDS011;10676;50.848;3.272;2024-02-04T01:52:28;55.90;;;44.97;;
21034;SDS011;10676;50.848;3.272;2024-02-04T01:54:55;51.60;;;45.97;;
21034;SDS011;10676;50.848;3.272;2024-02-04T01:57:21;55.58;;;45.20;;
21034;SDS011;10676;50.848;3.272;2024-02-04T01:59:48;51.72;;;46.20;;
21034;SDS011;10676;50.848;3.272;2024-02-04T02:02:16;50.25;;;44.40;;
21034;SDS011;10676;50.848;3.272;2024-02-04T02:04:43;59.45;;;47.83;;
21034;SDS011;10676;50.848;3.272;2024-02-04T02:07:09;61.10;;;50.65;;
21034;SDS011;10676;50.848;3.272;2024-02-04T02:09:35;64.93;;;53.22;;
21034;SDS011;10676;50.848;3.272;2024-02-04T02:12:01;61.38;;;54.83;;
21034;SDS011;10676;50.848;3.272;2024-02-04T02:14:35;71.50;;;56.08;;
21034;SDS011;10676;50.848;3.272;2024-02-04T02:17:06;67.53;;;56.60;;
21034;SDS011;10676;50.848;3.272;2024-02-04T02:19:57;69.40;;;57.38;;
21034;SDS011;10676;50.848;3.272;2024-02-04T02:25:02;66.25;;;58.63;;
21034;SDS011;10676;50.848;3.272;2024-02-04T02:27:30;73.65;;;58.45;;
21034;SDS011;10676;50.848;3.272;2024-02-04T02:29:55;68.72;;;56.92;;
21034;SDS011;10676;50.848;3.272;2024-02-04T02:32:21;66.75;;;57.72;;
21034;SDS011;10676;50.848;3.272;2024-02-04T02:34:48;66.18;;;58.75;;
21034;SDS011;10676;50.848;3.272;2024-02-04T02:42:30;150.15;;;136.75;;
21034;SDS011;10676;50.848;3.272;2024-02-04T02:44:57;184.27;;;167.57;;
21034;SDS011;10676;50.848;3.272;2024-02-04T02:47:24;189.18;;;171.32;;
21034;SDS011;10676;50.848;3.272;2024-02-04T02:49:53;190.20;;;172.32;;
21034;SDS011;10676;50.848;3.272;2024-02-04T02:52:20;182.80;;;165.98;;
21034;SDS011;10676;50.848;3.272;2024-02-04T02:54:46;170.90;;;154.77;;
21034;SDS011;10676;50.848;3.272;2024-02-04T02:57:11;178.93;;;162.75;;
21034;SDS011;10676;50.848;3.272;2024-02-04T02:59:37;177.98;;;161.32;;
21034;SDS011;10676;50.848;3.272;2024-02-04T03:02:03;175.38;;;159.18;;
21034;SDS011;10676;50.848;3.272;2024-02-04T03:04:29;180.27;;;163.43;;
21034;SDS011;10676;50.848;3.272;2024-02-04T03:06:54;176.02;;;160.30;;
21034;SDS011;10676;50.848;3.272;2024-02-04T03:09:20;164.98;;;150.00;;
21034;SDS011;10676;50.848;3.272;2024-02-04T03:11:45;171.48;;;155.40;;
21034;SDS011;10676;50.848;3.272;2024-02-04T03:14:11;174.00;;;158.05;;
21034;SDS011;10676;50.848;3.272;2024-02-04T03:16:39;154.20;;;139.93;;
21034;SDS011;10676;50.848;3.272;2024-02-04T03:19:05;157.23;;;142.18;;
21034;SDS011;10676;50.848;3.272;2024-02-04T03:21:31;147.93;;;134.40;;
21034;SDS011;10676;50.848;3.272;2024-02-04T03:23:57;149.13;;;135.60;;
21034;SDS011;10676;50.848;3.272;2024-02-04T03:26:22;147.98;;;134.27;;
21034;SDS011;10676;50.848;3.272;2024-02-04T03:28:48;148.63;;;134.27;;
21034;SDS011;10676;50.848;3.272;2024-02-04T03:31:21;149.68;;;136.25;;
21034;SDS011;10676;50.848;3.272;2024-02-04T03:33:47;157.80;;;143.32;;
21034;SDS011;10676;50.848;3.272;2024-02-04T03:36:18;170.00;;;154.05;;
21034;SDS011;10676;50.848;3.272;2024-02-04T03:38:45;184.95;;;168.48;;
21034;SDS011;10676;50.848;3.272;2024-02-04T03:41:10;200.77;;;182.50;;
21034;SDS011;10676;50.848;3.272;2024-02-04T03:43:36;216.68;;;196.73;;
21034;SDS011;10676;50.848;3.272;2024-02-04T03:46:02;228.30;;;206.40;;
21034;SDS011;10676;50.848;3.272;2024-02-04T03:48:28;238.15;;;215.77;;
21034;SDS011;10676;50.848;3.272;2024-02-04T03:50:54;241.80;;;219.15;;
21034;SDS011;10676;50.848;3.272;2024-02-04T03:53:20;242.48;;;220.18;;
21034;SDS011;10676;50.848;3.272;2024-02-04T03:55:48;246.30;;;222.82;;
21034;SDS011;10676;50.848;3.272;2024-02-04T03:58:14;241.50;;;218.73;;
21034;SDS011;10676;50.848;3.272;2024-02-04T04:00:39;233.98;;;210.70;;
21034;SDS011;10676;50.848;3.272;2024-02-04T04:03:05;228.55;;;206.32;;
21034;SDS011;10676;50.848;3.272;2024-02-04T04:05:31;226.73;;;205.07;;
21034;SDS011;10676;50.848;3.272;2024-02-04T04:07:56;224.35;;;202.48;;
21034;SDS011;10676;50.848;3.272;2024-02-04T04:10:22;217.40;;;196.70;;
21034;SDS011;10676;50.848;3.272;2024-02-04T04:12:48;222.57;;;201.85;;
21034;SDS011;10676;50.848;3.272;2024-02-04T04:15:13;224.27;;;203.68;;
21034;SDS011;10676;50.848;3.272;2024-02-04T04:17:39;215.60;;;195.63;;
21034;SDS011;10676;50.848;3.272;2024-02-04T04:20:06;212.45;;;192.85;;
21034;SDS011;10676;50.848;3.272;2024-02-04T04:22:32;220.45;;;199.65;;
21034;SDS011;10676;50.848;3.272;2024-02-04T04:24:58;210.25;;;191.10;;
21034;SDS011;10676;50.848;3.272;2024-02-04T04:27:23;212.43;;;193.65;;
21034;SDS011;10676;50.848;3.272;2024-02-04T04:29:49;194.57;;;176.75;;
21034;SDS011;10676;50.848;3.272;2024-02-04T04:32:15;199.70;;;182.10;;
21034;SDS011;10676;50.848;3.272;2024-02-04T04:34:41;195.98;;;177.80;;
21034;SDS011;10676;50.848;3.272;2024-02-04T04:37:06;183.07;;;166.38;;
21034;SDS011;10676;50.848;3.272;2024-02-04T04:39:32;184.10;;;167.00;;
21034;SDS011;10676;50.848;3.272;2024-02-04T04:41:58;169.00;;;153.23;;
21034;SDS011;10676;50.848;3.272;2024-02-04T04:44:23;161.77;;;146.82;;
21034;SDS011;10676;50.848;3.272;2024-02-04T04:46:49;164.07;;;148.75;;
21034;SDS011;10676;50.848;3.272;2024-02-04T04:49:15;166.27;;;150.85;;
21034;SDS011;10676;50.848;3.272;2024-02-04T04:51:44;150.63;;;135.65;;
21034;SDS011;10676;50.848;3.272;2024-02-04T04:54:11;148.57;;;134.30;;
21034;SDS011;10676;50.848;3.272;2024-02-04T04:56:40;131.85;;;118.57;;
21034;SDS011;10676;50.848;3.272;2024-02-04T04:59:09;122.38;;;111.15;;
21034;SDS011;10676;50.848;3.272;2024-02-04T05:01:34;107.57;;;96.38;;
21034;SDS011;10676;50.848;3.272;2024-02-04T05:04:00;101.78;;;92.22;;
21034;SDS011;10676;50.848;3.272;2024-02-04T05:06:26;99.20;;;89.50;;
21034;SDS011;10676;50.848;3.272;2024-02-04T05:08:52;89.82;;;80.43;;
21034;SDS011;10676;50.848;3.272;2024-02-04T05:11:17;93.80;;;84.40;;
21034;SDS011;10676;50.848;3.272;2024-02-04T05:13:43;90.15;;;81.45;;
21034;SDS011;10676;50.848;3.272;2024-02-04T05:16:09;80.30;;;72.40;;
21034;SDS011;10676;50.848;3.272;2024-02-04T05:18:34;79.82;;;72.38;;
21034;SDS011;10676;50.848;3.272;2024-02-04T05:21:01;79.50;;;71.57;;
21034;SDS011;10676;50.848;3.272;2024-02-04T05:23:28;68.32;;;61.80;;
21034;SDS011;10676;50.848;3.272;2024-02-04T05:25:53;63.58;;;56.75;;
21034;SDS011;10676;50.848;3.272;2024-02-04T05:28:19;62.35;;;53.03;;
21034;SDS011;10676;50.848;3.272;2024-02-04T05:30:44;57.15;;;49.17;;
21034;SDS011;10676;50.848;3.272;2024-02-04T05:33:13;55.80;;;49.35;;
21034;SDS011;10676;50.848;3.272;2024-02-04T05:35:39;54.22;;;47.78;;
21034;SDS011;10676;50.848;3.272;2024-02-04T05:38:07;52.70;;;44.92;;
21034;SDS011;10676;50.848;3.272;2024-02-04T05:40:33;47.03;;;42.05;;
21034;SDS011;10676;50.848;3.272;2024-02-04T05:42:59;51.28;;;42.25;;
21034;SDS011;10676;50.848;3.272;2024-02-04T05:45:30;48.85;;;43.25;;
21034;SDS011;10676;50.848;3.272;2024-02-04T05:47:56;46.65;;;41.55;;
21034;SDS011;10676;50.848;3.272;2024-02-04T05:50:22;48.05;;;40.20;;
21034;SDS011;10676;50.848;3.272;2024-02-04T05:52:47;43.40;;;38.53;;
21034;SDS011;10676;50.848;3.272;2024-02-04T05:55:14;42.58;;;38.00;;
21034;SDS011;10676;50.848;3.272;2024-02-04T05:57:40;40.00;;;35.28;;
21034;SDS011;10676;50.848;3.272;2024-02-04T06:00:06;36.88;;;33.15;;
21034;SDS011;10676;50.848;3.272;2024-02-04T06:02:34;35.17;;;31.70;;
21034;SDS011;10676;50.848;3.272;2024-02-04T06:04:59;33.30;;;30.20;;
21034;SDS011;10676;50.848;3.272;2024-02-04T06:07:25;35.17;;;31.27;;
21034;SDS011;10676;50.848;3.272;2024-02-04T06:09:50;36.75;;;30.70;;
21034;SDS011;10676;50.848;3.272;2024-02-04T06:12:16;38.10;;;31.55;;
21034;SDS011;10676;50.848;3.272;2024-02-04T06:14:42;35.30;;;31.77;;
21034;SDS011;10676;50.848;3.272;2024-02-04T06:17:08;34.90;;;31.38;;
21034;SDS011;10676;50.848;3.272;2024-02-04T06:19:36;34.55;;;31.27;;
21034;SDS011;10676;50.848;3.272;2024-02-04T06:22:03;36.00;;;32.40;;
21034;SDS011;10676;50.848;3.272;2024-02-04T06:24:29;34.42;;;30.67;;
21034;SDS011;10676;50.848;3.272;2024-02-04T06:26:55;35.10;;;31.27;;
21034;SDS011;10676;50.848;3.272;2024-02-04T06:29:21;38.13;;;31.42;;
21034;SDS011;10676;50.848;3.272;2024-02-04T06:31:46;34.45;;;30.88;;
21034;SDS011;10676;50.848;3.272;2024-02-04T06:34:12;32.38;;;29.17;;
21034;SDS011;10676;50.848;3.272;2024-02-04T06:36:38;31.73;;;28.52;;
21034;SDS011;10676;50.848;3.272;2024-02-04T06:39:07;35.55;;;31.83;;
21034;SDS011;10676;50.848;3.272;2024-02-04T06:41:33;29.90;;;27.25;;
21034;SDS011;10676;50.848;3.272;2024-02-04T06:43:59;30.75;;;27.65;;
21034;SDS011;10676;50.848;3.272;2024-02-04T06:46:26;31.38;;;27.98;;
21034;SDS011;10676;50.848;3.272;2024-02-04T06:48:52;30.30;;;27.25;;
21034;SDS011;10676;50.848;3.272;2024-02-04T06:51:18;30.08;;;27.23;;
21034;SDS011;10676;50.848;3.272;2024-02-04T06:53:44;29.83;;;27.33;;
21034;SDS011;10676;50.848;3.272;2024-02-04T06:56:10;30.67;;;27.25;;
21034;SDS011;10676;50.848;3.272;2024-02-04T06:58:42;30.60;;;26.40;;
21034;SDS011;10676;50.848;3.272;2024-02-04T07:01:08;30.15;;;27.23;;
21034;SDS011;10676;50.848;3.272;2024-02-04T07:03:34;29.98;;;27.23;;
21034;SDS011;10676;50.848;3.272;2024-02-04T07:06:00;30.23;;;27.38;;
21034;SDS011;10676;50.848;3.272;2024-02-04T07:08:25;31.55;;;28.65;;
21034;SDS011;10676;50.848;3.272;2024-02-04T07:10:51;31.00;;;28.33;;
21034;SDS011;10676;50.848;3.272;2024-02-04T07:13:17;31.92;;;28.55;;
21034;SDS011;10676;50.848;3.272;2024-02-04T07:15:43;32.10;;;29.13;;
21034;SDS011;10676;50.848;3.272;2024-02-04T07:18:09;34.42;;;31.13;;
21034;SDS011;10676;50.848;3.272;2024-02-04T07:20:35;33.90;;;30.88;;
21034;SDS011;10676;50.848;3.272;2024-02-04T07:23:00;33.13;;;29.58;;
21034;SDS011;10676;50.848;3.272;2024-02-04T07:25:26;32.47;;;29.48;;
21034;SDS011;10676;50.848;3.272;2024-02-04T07:27:53;34.08;;;30.98;;
21034;SDS011;10676;50.848;3.272;2024-02-04T07:30:19;32.97;;;30.02;;
21034;SDS011;10676;50.848;3.272;2024-02-04T07:32:46;33.65;;;30.48;;
21034;SDS011;10676;50.848;3.272;2024-02-04T07:35:11;32.80;;;29.38;;
21034;SDS011;10676;50.848;3.272;2024-02-04T07:37:37;28.98;;;26.20;;
21034;SDS011;10676;50.848;3.272;2024-02-04T07:40:03;30.40;;;27.30;;
21034;SDS011;10676;50.848;3.272;2024-02-04T07:42:32;32.42;;;28.33;;
21034;SDS011;10676;50.848;3.272;2024-02-04T07:44:58;34.25;;;30.73;;
21034;SDS011;10676;50.848;3.272;2024-02-04T07:47:24;35.78;;;30.65;;
21034;SDS011;10676;50.848;3.272;2024-02-04T07:49:49;35.95;;;32.10;;
21034;SDS011;10676;50.848;3.272;2024-02-04T07:52:16;35.70;;;30.90;;
21034;SDS011;10676;50.848;3.272;2024-02-04T07:54:41;34.53;;;30.52;;
21034;SDS011;10676;50.848;3.272;2024-02-04T07:57:12;40.53;;;33.78;;
21034;SDS011;10676;50.848;3.272;2024-02-04T07:59:37;34.05;;;30.42;;
21034;SDS011;10676;50.848;3.272;2024-02-04T08:02:03;36.28;;;32.30;;
21034;SDS011;10676;50.848;3.272;2024-02-04T08:04:29;33.28;;;29.38;;
21034;SDS011;10676;50.848;3.272;2024-02-04T08:06:55;33.67;;;29.75;;
21034;SDS011;10676;50.848;3.272;2024-02-04T08:09:21;33.45;;;30.08;;
21034;SDS011;10676;50.848;3.272;2024-02-04T08:11:47;33.35;;;29.25;;
21034;SDS011;10676;50.848;3.272;2024-02-04T08:14:12;32.35;;;28.55;;
21034;SDS011;10676;50.848;3.272;2024-02-04T08:16:42;32.33;;;28.80;;
21034;SDS011;10676;50.848;3.272;2024-02-04T08:19:08;29.52;;;26.50;;
21034;SDS011;10676;50.848;3.272;2024-02-04T08:21:34;30.52;;;27.58;;
21034;SDS011;10676;50.848;3.272;2024-02-04T08:24:00;30.65;;;27.40;;
21034;SDS011;10676;50.848;3.272;2024-02-04T08:26:26;29.20;;;26.48;;
21034;SDS011;10676;50.848;3.272;2024-02-04T08:28:52;29.05;;;26.27;;
21034;SDS011;10676;50.848;3.272;2024-02-04T08:31:18;30.08;;;26.90;;
21034;SDS011;10676;50.848;3.272;2024-02-04T08:33:43;29.83;;;26.50;;
21034;SDS011;10676;50.848;3.272;2024-02-04T08:36:09;30.67;;;26.27;;
21034;SDS011;10676;50.848;3.272;2024-02-04T08:38:37;29.48;;;26.67;;
21034;SDS011;10676;50.848;3.272;2024-02-04T08:41:03;29.55;;;26.67;;
21034;SDS011;10676;50.848;3.272;2024-02-04T08:43:29;28.15;;;25.45;;
21034;SDS011;10676;50.848;3.272;2024-02-04T08:45:55;27.02;;;24.63;;
21034;SDS011;10676;50.848;3.272;2024-02-04T08:48:21;27.55;;;25.05;;
21034;SDS011;10676;50.848;3.272;2024-02-04T08:50:46;27.70;;;24.88;;
21034;SDS011;10676;50.848;3.272;2024-02-04T08:53:12;28.00;;;25.35;;
21034;SDS011;10676;50.848;3.272;2024-02-04T08:55:38;26.73;;;24.23;;
21034;SDS011;10676;50.848;3.272;2024-02-04T08:58:04;25.48;;;22.83;;
21034;SDS011;10676;50.848;3.272;2024-02-04T09:00:30;24.98;;;22.83;;
21034;SDS011;10676;50.848;3.272;2024-02-04T09:02:56;26.17;;;23.90;;
21034;SDS011;10676;50.848;3.272;2024-02-04T09:05:21;26.50;;;24.02;;
21034;SDS011;10676;50.848;3.272;2024-02-04T09:07:47;26.90;;;24.33;;
21034;SDS011;10676;50.848;3.272;2024-02-04T09:10:13;27.50;;;24.65;;
21034;SDS011;10676;50.848;3.272;2024-02-04T09:12:39;26.65;;;24.30;;
21034;SDS011;10676;50.848;3.272;2024-02-04T09:15:05;27.02;;;24.55;;
21034;SDS011;10676;50.848;3.272;2024-02-04T09:17:31;27.38;;;24.60;;
21034;SDS011;10676;50.848;3.272;2024-02-04T09:20:00;26.60;;;24.05;;
21034;SDS011;10676;50.848;3.272;2024-02-04T09:22:25;26.08;;;23.38;;
21034;SDS011;10676;50.848;3.272;2024-02-04T09:24:51;26.40;;;23.98;;
21034;SDS011;10676;50.848;3.272;2024-02-04T09:27:17;31.15;;;25.80;;
21034;SDS011;10676;50.848;3.272;2024-02-04T09:29:43;30.35;;;23.92;;
21034;SDS011;10676;50.848;3.272;2024-02-04T09:32:08;26.13;;;23.77;;
21034;SDS011;10676;50.848;3.272;2024-02-04T09:34:34;26.20;;;23.73;;
21034;SDS011;10676;50.848;3.272;2024-02-04T09:37:00;26.85;;;24.13;;
21034;SDS011;10676;50.848;3.272;2024-02-04T09:39:26;26.27;;;23.55;;
21034;SDS011;10676;50.848;3.272;2024-02-04T09:41:52;25.33;;;23.20;;
21034;SDS011;10676;50.848;3.272;2024-02-04T09:44:19;26.55;;;24.25;;
21034;SDS011;10676;50.848;3.272;2024-02-04T09:46:47;25.92;;;23.48;;
21034;SDS011;10676;50.848;3.272;2024-02-04T09:49:13;26.20;;;23.75;;
21034;SDS011;10676;50.848;3.272;2024-02-04T09:51:39;26.08;;;23.48;;
21034;SDS011;10676;50.848;3.272;2024-02-04T09:54:05;25.77;;;23.38;;
21034;SDS011;10676;50.848;3.272;2024-02-04T09:56:35;26.08;;;23.35;;
21034;SDS011;10676;50.848;3.272;2024-02-04T09:59:02;26.35;;;23.75;;
21034;SDS011;10676;50.848;3.272;2024-02-04T10:01:28;25.73;;;23.27;;
21034;SDS011;10676;50.848;3.272;2024-02-04T10:03:54;24.63;;;22.10;;
21034;SDS011;10676;50.848;3.272;2024-02-04T10:06:19;24.38;;;22.13;;
21034;SDS011;10676;50.848;3.272;2024-02-04T10:08:45;24.40;;;21.63;;
21034;SDS011;10676;50.848;3.272;2024-02-04T10:11:12;22.98;;;20.77;;
21034;SDS011;10676;50.848;3.272;2024-02-04T10:13:42;24.17;;;22.15;;
21034;SDS011;10676;50.848;3.272;2024-02-04T10:16:15;25.17;;;22.88;;
21034;SDS011;10676;50.848;3.272;2024-02-04T10:18:42;25.52;;;23.02;;
21034;SDS011;10676;50.848;3.272;2024-02-04T10:21:15;24.40;;;22.10;;
21034;SDS011;10676;50.848;3.272;2024-02-04T10:23:42;24.15;;;21.30;;
21034;SDS011;10676;50.848;3.272;2024-02-04T10:26:07;24.33;;;21.90;;
21034;SDS011;10676;50.848;3.272;2024-02-04T10:28:33;24.55;;;22.23;;
21034;SDS011;10676;50.848;3.272;2024-02-04T10:30:59;24.13;;;22.13;;
21034;SDS011;10676;50.848;3.272;2024-02-04T10:33:24;24.65;;;22.17;;
21034;SDS011;10676;50.848;3.272;2024-02-04T10:35:50;23.75;;;21.70;;
21034;SDS011;10676;50.848;3.272;2024-02-04T10:38:16;24.80;;;22.38;;
21034;SDS011;10676;50.848;3.272;2024-02-04T10:40:41;24.13;;;21.70;;
21034;SDS011;10676;50.848;3.272;2024-02-04T10:43:08;25.30;;;22.63;;
21034;SDS011;10676;50.848;3.272;2024-02-04T10:45:35;24.67;;;22.30;;
21034;SDS011;10676;50.848;3.272;2024-02-04T10:48:05;25.00;;;22.90;;
21034;SDS011;10676;50.848;3.272;2024-02-04T10:50:32;25.13;;;22.75;;
21034;SDS011;10676;50.848;3.272;2024-02-04T10:53:03;25.95;;;23.23;;
21034;SDS011;10676;50.848;3.272;2024-02-04T10:55:32;25.42;;;23.08;;
21034;SDS011;10676;50.848;3.272;2024-02-04T10:58:02;24.73;;;22.42;;
21034;SDS011;10676;50.848;3.272;2024-02-04T11:00:29;26.17;;;23.70;;
21034;SDS011;10676;50.848;3.272;2024-02-04T11:02:55;26.85;;;24.20;;
21034;SDS011;10676;50.848;3.272;2024-02-04T11:05:22;27.80;;;25.00;;
21034;SDS011;10676;50.848;3.272;2024-02-04T11:07:49;27.38;;;24.88;;
21034;SDS011;10676;50.848;3.272;2024-02-04T11:10:16;30.83;;;27.70;;
21034;SDS011;10676;50.848;3.272;2024-02-04T11:12:42;31.83;;;28.80;;
21034;SDS011;10676;50.848;3.272;2024-02-04T11:15:11;31.50;;;27.88;;
21034;SDS011;10676;50.848;3.272;2024-02-04T11:23:17;38.72;;;34.78;;
21034;SDS011;10676;50.848;3.272;2024-02-04T11:26:07;42.03;;;37.58;;
21034;SDS011;10676;50.848;3.272;2024-02-04T11:28:34;48.00;;;40.50;;
21034;SDS011;10676;50.848;3.272;2024-02-04T11:31:01;50.00;;;40.38;;
21034;SDS011;10676;50.848;3.272;2024-02-04T11:33:27;50.63;;;42.15;;
21034;SDS011;10676;50.848;3.272;2024-02-04T11:36:02;54.10;;;48.38;;
21034;SDS011;10676;50.848;3.272;2024-02-04T11:38:29;54.80;;;49.17;;
21034;SDS011;10676;50.848;3.272;2024-02-04T11:41:02;61.90;;;55.50;;
21034;SDS011;10676;50.848;3.272;2024-02-04T11:43:28;121.07;;;110.40;;
21034;SDS011;10676;50.848;3.272;2024-02-04T11:45:54;130.35;;;118.65;;
21034;SDS011;10676;50.848;3.272;2024-02-04T11:48:20;186.48;;;169.98;;
21034;SDS011;10676;50.848;3.272;2024-02-04T11:50:53;183.63;;;167.00;;
21034;SDS011;10676;50.848;3.272;2024-02-04T11:53:19;179.18;;;162.27;;
21034;SDS011;10676;50.848;3.272;2024-02-04T11:55:45;175.73;;;159.15;;
21034;SDS011;10676;50.848;3.272;2024-02-04T11:58:11;186.18;;;168.18;;
21034;SDS011;10676;50.848;3.272;2024-02-04T12:00:37;188.90;;;170.63;;
21034;SDS011;10676;50.848;3.272;2024-02-04T12:03:07;184.65;;;166.02;;
21034;SDS011;10676;50.848;3.272;2024-02-04T12:05:35;180.95;;;163.00;;
21034;SDS011;10676;50.848;3.272;2024-02-04T12:08:02;193.45;;;174.25;;
21034;SDS011;10676;50.848;3.272;2024-02-04T12:10:30;181.52;;;163.15;;
21034;SDS011;10676;50.848;3.272;2024-02-04T12:12:58;186.07;;;166.85;;
21034;SDS011;10676;50.848;3.272;2024-02-04T12:15:24;193.13;;;173.45;;
21034;SDS011;10676;50.848;3.272;2024-02-04T12:17:50;193.68;;;173.35;;
21034;SDS011;10676;50.848;3.272;2024-02-04T12:20:16;205.35;;;184.18;;
21034;SDS011;10676;50.848;3.272;2024-02-04T12:22:42;202.40;;;181.90;;
21034;SDS011;10676;50.848;3.272;2024-02-04T12:25:08;194.48;;;173.77;;
21034;SDS011;10676;50.848;3.272;2024-02-04T12:27:34;195.88;;;175.40;;
21034;SDS011;10676;50.848;3.272;2024-02-04T12:30:00;197.20;;;175.93;;
21034;SDS011;10676;50.848;3.272;2024-02-04T12:32:26;201.57;;;180.38;;
21034;SDS011;10676;50.848;3.272;2024-02-04T12:34:51;198.63;;;176.90;;
21034;SDS011;10676;50.848;3.272;2024-02-04T12:37:21;196.20;;;172.95;;
21034;SDS011;10676;50.848;3.272;2024-02-04T12:39:47;203.82;;;180.65;;
21034;SDS011;10676;50.848;3.272;2024-02-04T12:42:16;213.10;;;190.07;;
21034;SDS011;10676;50.848;3.272;2024-02-04T12:44:49;218.05;;;194.52;;
21034;SDS011;10676;50.848;3.272;2024-02-04T12:47:20;221.13;;;197.23;;
21034;SDS011;10676;50.848;3.272;2024-02-04T12:49:45;216.85;;;193.63;;
21034;SDS011;10676;50.848;3.272;2024-02-04T12:52:11;216.77;;;193.38;;
21034;SDS011;10676;50.848;3.272;2024-02-04T12:54:41;217.77;;;194.13;;
21034;SDS011;10676;50.848;3.272;2024-02-04T12:57:07;202.57;;;180.98;;
21034;SDS011;10676;50.848;3.272;2024-02-04T12:59:36;207.63;;;186.07;;
21034;SDS011;10676;50.848;3.272;2024-02-04T13:02:02;212.23;;;190.27;;
21034;SDS011;10676;50.848;3.272;2024-02-04T13:07:12;214.45;;;191.40;;
21034;SDS011;10676;50.848;3.272;2024-02-04T13:09:39;222.38;;;198.48;;
21034;SDS011;10676;50.848;3.272;2024-02-04T13:12:06;217.73;;;194.90;;
21034;SDS011;10676;50.848;3.272;2024-02-04T13:14:33;219.18;;;196.63;;
21034;SDS011;10676;50.848;3.272;2024-02-04T13:17:03;219.82;;;197.25;;
21034;SDS011;10676;50.848;3.272;2024-02-04T13:19:33;217.40;;;194.73;;
21034;SDS011;10676;50.848;3.272;2024-02-04T13:22:03;226.05;;;203.35;;
21034;SDS011;10676;50.848;3.272;2024-02-04T13:24:29;212.05;;;190.77;;
21034;SDS011;10676;50.848;3.272;2024-02-04T13:26:56;222.63;;;201.35;;
21034;SDS011;10676;50.848;3.272;2024-02-04T13:29:22;220.40;;;199.77;;
21034;SDS011;10676;50.848;3.272;2024-02-04T13:31:50;203.48;;;184.02;;
21034;SDS011;10676;50.848;3.272;2024-02-04T13:34:15;210.77;;;190.93;;
21034;SDS011;10676;50.848;3.272;2024-02-04T13:36:43;211.02;;;191.00;;
21034;SDS011;10676;50.848;3.272;2024-02-04T13:39:09;235.52;;;213.27;;
21034;SDS011;10676;50.848;3.272;2024-02-04T13:41:37;261.70;;;230.55;;
21034;SDS011;10676;50.848;3.272;2024-02-04T13:44:05;252.73;;;228.90;;
21034;SDS011;10676;50.848;3.272;2024-02-04T13:46:32;387.85;;;308.52;;
21034;SDS011;10676;50.848;3.272;2024-02-04T13:48:58;286.15;;;257.83;;
21034;SDS011;10676;50.848;3.272;2024-02-04T13:51:23;221.02;;;201.95;;
21034;SDS011;10676;50.848;3.272;2024-02-04T13:53:49;210.13;;;192.63;;
21034;SDS011;10676;50.848;3.272;2024-02-04T13:56:15;204.38;;;187.30;;
21034;SDS011;10676;50.848;3.272;2024-02-04T13:58:43;196.80;;;179.52;;
21034;SDS011;10676;50.848;3.272;2024-02-04T14:01:09;215.20;;;195.82;;
21034;SDS011;10676;50.848;3.272;2024-02-04T14:03:35;192.15;;;174.73;;
21034;SDS011;10676;50.848;3.272;2024-02-04T14:06:01;164.45;;;149.95;;
21034;SDS011;10676;50.848;3.272;2024-02-04T14:08:28;154.73;;;141.50;;
21034;SDS011;10676;50.848;3.272;2024-02-04T14:10:55;132.18;;;120.25;;
21034;SDS011;10676;50.848;3.272;2024-02-04T14:13:20;133.07;;;120.78;;
21034;SDS011;10676;50.848;3.272;2024-02-04T14:15:46;109.95;;;100.43;;
21034;SDS011;10676;50.848;3.272;2024-02-04T14:18:12;95.47;;;87.00;;
21034;SDS011;10676;50.848;3.272;2024-02-04T14:20:38;81.50;;;74.00;;
21034;SDS011;10676;50.848;3.272;2024-02-04T14:23:03;72.90;;;65.72;;
21034;SDS011;10676;50.848;3.272;2024-02-04T14:25:29;69.80;;;61.90;;